Time;durP1;ratioP1;P1;durP2;ratioP2;P2;SDS_P1;SDS_P2;PMS_P1;PMS_P2;Temp;Humidity;BMP_temperature;BMP_pressure;BME280_temperature;BME280_humidity;BME280_pressure;Samples;Min_cycle;Max_cycle;Signal;HPM_P1;HPM_P2
2022/10/23 00:01:42;;;;;;;;;;;;;;;;;;;;;
2022/10/23 00:04:16;;;;;;;;;;;11.20;99.90;;;;;;5028637;28;20054;-90
2022/10/23 00:06:43;;;;;;;8.70;4.55;;;11.10;99.90;;;;;;5012086;28;19920;-92
2022/10/23 00:09:14;;;;;;;13.07;5.10;;;11.20;99.90;;;;;;5010726;28;20450;-90
2022/10/23 00:11:41;;;;;;;15.38;4.95;;;11.00;99.90;;;;;;5026521;28;20081;-91
2022/10/23 00:14:07;;;;;;;13.15;4.90;;;11.00;99.90;;;;;;5027321;28;20083;-89
2022/10/23 00:16:36;;;;;;;11.70;5.57;;;11.20;99.90;;;;;;5013185;28;20084;-88
2022/10/23 00:19:05;;;;;;;13.88;5.57;;;11.10;99.90;;;;;;4996061;28;20081;-89
2022/10/23 00:21:43;;;;;;;11.95;5.38;;;11.20;99.90;;;;;;5009632;28;20499;-88
2022/10/23 00:24:09;;;;;;;11.00;5.30;;;11.20;99.90;;;;;;5011298;28;20051;-89
2022/10/23 00:26:37;;;;;;;11.55;5.13;;;11.00;99.90;;;;;;5008908;28;20689;-91
2022/10/23 00:29:06;;;;;;;13.65;4.80;;;11.00;99.90;;;;;;5030099;28;20415;-90
2022/10/23 00:31:34;;;;;;;11.00;4.90;;;11.00;99.90;;;;;;5009649;28;20049;-90
2022/10/23 00:34:08;;;;;;;11.68;4.90;;;10.80;99.90;;;;;;5031711;28;20053;-89
2022/10/23 00:36:36;;;;;;;10.43;5.82;;;10.90;99.90;;;;;;5025064;28;20100;-89
2022/10/23 00:39:12;;;;;;;12.60;4.72;;;10.90;99.90;;;;;;5010885;28;20053;-91
2022/10/23 00:41:41;;;;;;;11.75;5.90;;;10.70;99.90;;;;;;5008778;28;20053;-89
2022/10/23 00:44:18;;;;;;;13.52;5.50;;;10.80;99.90;;;;;;5026649;28;20092;-88
2022/10/23 00:46:45;;;;;;;12.23;5.80;;;10.70;99.90;;;;;;5025106;28;20069;-89
2022/10/23 00:49:11;;;;;;;16.45;6.40;;;10.60;99.90;;;;;;4993763;28;20041;-91
2022/10/23 00:51:50;;;;;;;13.13;6.75;;;10.70;99.90;;;;;;5009270;28;20048;-90
2022/10/23 00:54:20;;;;;;;11.23;6.60;;;10.60;99.90;;;;;;5028109;28;20060;-90
2022/10/23 00:56:47;;;;;;;15.02;6.68;;;10.60;99.90;;;;;;5031582;28;20145;-91
2022/10/23 00:59:13;;;;;;;14.52;7.10;;;10.80;99.90;;;;;;5027431;28;20056;-90
2022/10/23 01:01:40;;;;;;;11.10;6.13;;;10.60;99.90;;;;;;5011385;28;20061;-90
2022/10/23 01:04:09;;;;;;;9.63;6.05;;;10.60;99.90;;;;;;5025370;28;20053;-90
2022/10/23 01:06:44;;;;;;;13.85;6.82;;;10.60;99.90;;;;;;5029048;28;20465;-90
2022/10/23 01:09:28;;;;;;;11.88;7.63;;;10.60;99.90;;;;;;5031484;28;20125;-92
2022/10/23 01:12:09;;;;;;;14.88;7.13;;;10.50;99.90;;;;;;5013632;28;20055;-89
2022/10/23 01:15:00;;;;;;;11.95;6.90;;;10.50;99.90;;;;;;5029623;28;20061;-88
2022/10/23 01:17:36;;;;;;;13.43;6.85;;;10.50;99.90;;;;;;5028642;28;20045;-90
2022/10/23 01:20:28;;;;;;;11.77;6.72;;;10.50;99.90;;;;;;5010643;28;20049;-90
2022/10/23 01:23:22;;;;;;;12.43;6.68;;;10.40;99.90;;;;;;5006451;28;20060;-90
2022/10/23 01:26:14;;;;;;;9.98;6.38;;;10.40;99.90;;;;;;5004039;28;20061;-89
2022/10/23 01:28:58;;;;;;;11.77;6.38;;;10.40;99.90;;;;;;5024135;28;20050;-90
2022/10/23 01:31:31;;;;;;;11.60;7.22;;;10.40;99.90;;;;;;5023616;28;20079;-88
2022/10/23 01:34:05;;;;;;;14.77;7.35;;;10.40;99.90;;;;;;5023698;28;20060;-90
2022/10/23 01:36:33;;;;;;;15.43;7.07;;;10.10;99.90;;;;;;5024580;28;20048;-89
2022/10/23 01:39:35;;;;;;;13.48;6.78;;;10.40;99.90;;;;;;5003612;28;20041;-91
2022/10/23 01:42:24;;;;;;;12.55;7.32;;;10.40;99.90;;;;;;5027307;28;20061;-91
2022/10/23 01:44:59;;;;;;;14.27;6.93;;;10.40;99.90;;;;;;5005331;28;20123;-89
2022/10/23 01:47:29;;;;;;;12.77;6.78;;;10.40;99.90;;;;;;5027625;28;20056;-90
2022/10/23 01:49:56;;;;;;;14.60;7.13;;;10.90;99.90;;;;;;5022698;28;20056;-90
2022/10/23 01:52:22;;;;;;;11.55;6.97;;;10.40;99.90;;;;;;5007187;28;20045;-89
2022/10/23 01:54:50;;;;;;;9.52;5.93;;;10.40;99.90;;;;;;5006048;28;20081;-90
2022/10/23 01:57:19;;;;;;;10.15;5.97;;;10.40;99.90;;;;;;5022244;28;20045;-91
2022/10/23 01:59:57;;;;;;;11.82;6.40;;;10.30;99.90;;;;;;5008658;28;20061;-89
2022/10/23 02:02:26;;;;;;;11.13;6.80;;;10.30;99.90;;;;;;5010797;28;20076;-88
2022/10/23 02:05:18;;;;;;;9.32;7.07;;;10.30;99.90;;;;;;5026955;28;20157;-90
2022/10/23 02:07:45;;;;;;;10.18;6.72;;;10.40;99.90;;;;;;5024591;28;20061;-89
2022/10/23 02:10:12;;;;;;;10.60;6.55;;;10.30;99.90;;;;;;5005929;28;20046;-90
2022/10/23 02:13:11;;;;;;;11.70;5.75;;;10.20;99.90;;;;;;5009831;28;20058;-92
2022/10/23 02:15:50;;;;;;;11.52;6.88;;;10.30;99.90;;;;;;5013947;28;20056;-89
2022/10/23 02:18:40;;;;;;;11.50;6.13;;;10.30;99.90;;;;;;5043302;28;20046;-89
2022/10/23 02:21:12;;;;;;;9.63;5.72;;;10.20;99.90;;;;;;5006711;28;20140;-87
2022/10/23 02:23:57;;;;;;;11.52;6.05;;;10.20;99.90;;;;;;5010663;28;20483;-89
2022/10/23 02:26:34;;;;;;;11.45;6.28;;;10.10;99.90;;;;;;5023065;28;20057;-86
2022/10/23 02:29:26;;;;;;;8.45;5.28;;;10.00;99.90;;;;;;5005500;28;20045;-89
2022/10/23 02:31:52;;;;;;;7.20;5.78;;;10.00;99.90;;;;;;5024230;28;20041;-88
2022/10/23 02:34:18;;;;;;;6.43;5.35;;;10.00;99.90;;;;;;5006133;28;20115;-89
2022/10/23 02:36:44;;;;;;;8.05;5.43;;;10.00;99.90;;;;;;5005708;28;20061;-88
2022/10/23 02:39:09;;;;;;;6.35;4.93;;;9.90;99.90;;;;;;4997261;28;20507;-88
2022/10/23 02:41:46;;;;;;;8.40;6.70;;;9.90;99.90;;;;;;5004109;28;21070;-91
2022/10/23 02:44:22;;;;;;;7.35;5.15;;;9.80;99.90;;;;;;5009531;28;20049;-87
2022/10/23 02:47:06;;;;;;;8.20;4.93;;;9.90;99.90;;;;;;5024417;28;20057;-87
2022/10/23 02:49:38;;;;;;;8.25;5.10;;;8.50;99.90;;;;;;5023197;28;20068;-86
2022/10/23 02:52:20;;;;;;;8.00;5.55;;;8.80;99.90;;;;;;5005599;28;20613;-88
2022/10/23 02:55:24;;;;;;;6.82;5.10;;;9.70;99.90;;;;;;5008163;28;20502;-89
2022/10/23 02:57:53;;;;;;;8.02;5.18;;;9.60;99.90;;;;;;5008930;28;20247;-87
2022/10/23 03:00:21;;;;;;;6.57;5.50;;;9.60;99.90;;;;;;5022874;28;20052;-88
2022/10/23 03:03:04;;;;;;;7.57;5.35;;;9.50;99.90;;;;;;5003744;28;20495;-88
2022/10/23 03:05:35;;;;;;;9.15;6.22;;;9.50;99.90;;;;;;5020380;28;20042;-90
2022/10/23 03:08:06;;;;;;;10.57;6.43;;;9.50;99.90;;;;;;5017985;28;20103;-90
2022/10/23 03:10:32;;;;;;;10.10;6.80;;;9.50;99.90;;;;;;5006753;28;20037;-90
2022/10/23 03:12:58;;;;;;;10.18;7.07;;;9.40;99.90;;;;;;5006041;28;20056;-89
2022/10/23 03:15:32;;;;;;;10.98;7.05;;;9.50;99.90;;;;;;5020159;28;20131;-89
2022/10/23 03:17:58;;;;;;;9.88;7.28;;;9.60;99.90;;;;;;5007799;28;20053;-89
2022/10/23 03:20:24;;;;;;;13.10;8.63;;;9.50;99.90;;;;;;5023743;28;20061;-91
2022/10/23 03:22:50;;;;;;;11.98;8.32;;;9.50;99.90;;;;;;5024600;28;20041;-89
2022/10/23 03:25:16;;;;;;;14.80;7.95;;;9.70;99.90;;;;;;5006875;28;20107;-89
2022/10/23 03:27:42;;;;;;;10.90;7.53;;;9.40;99.90;;;;;;5025053;28;20424;-90
2022/10/23 03:30:08;;;;;;;11.85;7.75;;;9.40;99.90;;;;;;5010214;28;20061;-88
2022/10/23 03:32:34;;;;;;;12.82;8.38;;;9.50;99.90;;;;;;5011111;28;20050;-89
2022/10/23 03:35:00;;;;;;;10.77;8.38;;;9.60;99.90;;;;;;5008628;28;20049;-89
2022/10/23 03:37:26;;;;;;;12.60;7.55;;;9.60;99.90;;;;;;4988179;28;20042;-90
2022/10/23 03:39:52;;;;;;;18.10;9.32;;;9.50;99.90;;;;;;5008585;28;20525;-91
2022/10/23 03:42:17;;;;;;;13.82;8.65;;;9.60;99.90;;;;;;5006359;28;20113;-89
2022/10/23 03:44:43;;;;;;;12.82;9.20;;;9.50;99.90;;;;;;5021682;28;20495;-88
2022/10/23 03:47:15;;;;;;;12.98;8.77;;;9.50;99.90;;;;;;5020070;28;20041;-90
2022/10/23 03:49:48;;;;;;;12.77;9.13;;;9.70;99.90;;;;;;5008175;28;20049;-89
2022/10/23 03:52:13;;;;;;;13.02;9.65;;;9.70;99.90;;;;;;5007373;28;20160;-89
2022/10/23 03:54:39;;;;;;;13.43;8.95;;;9.50;99.90;;;;;;5008444;28;20124;-88
2022/10/23 03:57:08;;;;;;;13.05;9.15;;;9.80;99.90;;;;;;5010144;28;20136;-88
2022/10/23 03:59:34;;;;;;;12.25;9.65;;;9.70;99.90;;;;;;4997519;28;20049;-90
2022/10/23 04:02:11;;;;;;;12.40;9.25;;;9.60;99.90;;;;;;5007379;28;20615;-89
2022/10/23 04:04:40;;;;;;;15.15;9.55;;;9.60;99.90;;;;;;5025876;28;20041;-87
2022/10/23 04:07:06;;;;;;;13.77;9.32;;;9.60;99.90;;;;;;4990145;28;20384;-91
2022/10/23 04:09:35;;;;;;;18.95;10.52;;;9.50;99.90;;;;;;5025077;28;20049;-89
2022/10/23 04:12:03;;;;;;;20.55;10.82;;;9.50;99.90;;;;;;5023206;28;20072;-89
2022/10/23 04:14:31;;;;;;;12.73;9.75;;;9.60;99.90;;;;;;5028333;28;20064;-89
2022/10/23 04:16:57;;;;;;;15.40;10.60;;;9.70;99.90;;;;;;5009137;28;20057;-87
2022/10/23 04:19:28;;;;;;;15.40;10.35;;;9.50;99.90;;;;;;5025218;28;20537;-90
2022/10/23 04:21:54;;;;;;;14.25;11.07;;;9.60;99.90;;;;;;5008131;28;20727;-89
2022/10/23 04:24:19;;;;;;;15.05;10.20;;;9.60;99.90;;;;;;5022772;28;20140;-91
2022/10/23 04:26:45;;;;;;;16.23;11.02;;;9.70;99.90;;;;;;5008298;28;20053;-91
2022/10/23 04:29:21;;;;;;;;;;;;;;;;;;;;;
2022/10/23 04:31:47;;;;;;;;;;;9.60;99.90;;;;;;4993879;28;20045;-90
2022/10/23 04:34:16;;;;;;;16.67;10.10;;;9.60;99.90;;;;;;5007426;28;19932;-89
2022/10/23 04:36:42;;;;;;;13.52;10.15;;;9.60;99.90;;;;;;5008036;28;20080;-87
2022/10/23 04:39:11;;;;;;;11.60;9.68;;;9.50;99.90;;;;;;5007392;28;20089;-91
2022/10/23 04:41:37;;;;;;;15.02;10.65;;;9.60;99.90;;;;;;5028444;28;20782;-89
2022/10/23 04:44:03;;;;;;;15.77;10.32;;;9.50;99.90;;;;;;5011804;28;20293;-89
2022/10/23 04:46:29;;;;;;;13.98;10.40;;;9.60;99.90;;;;;;5005610;28;20582;-89
2022/10/23 04:48:55;;;;;;;12.38;9.18;;;9.60;99.90;;;;;;5024829;28;20060;-89
2022/10/23 04:51:24;;;;;;;13.55;10.05;;;9.70;99.90;;;;;;5023217;28;20487;-89
2022/10/23 04:53:52;;;;;;;13.55;10.07;;;;;;;;;;5022897;28;20045;-87
2022/10/23 04:56:21;;;;;;;14.35;9.85;;;9.60;99.90;;;;;;5024276;28;20043;-88
2022/10/23 04:58:46;;;;;;;12.55;9.73;;;9.60;99.90;;;;;;5005839;28;20049;-88
2022/10/23 05:01:12;;;;;;;14.65;9.50;;;9.50;99.90;;;;;;5025455;28;20051;-92
2022/10/23 05:03:42;;;;;;;16.02;10.30;;;9.50;99.90;;;;;;5005856;28;20483;-88
2022/10/23 05:06:16;;;;;;;13.48;9.63;;;9.50;99.90;;;;;;5024679;28;20048;-88
2022/10/23 05:08:41;;;;;;;15.10;9.50;;;9.50;99.90;;;;;;5011951;28;20179;-89
2022/10/23 05:11:07;;;;;;;12.10;9.60;;;9.50;99.90;;;;;;5020695;28;20487;-89
2022/10/23 05:13:36;;;;;;;12.32;9.57;;;9.50;99.90;;;;;;5024550;28;20045;-89
2022/10/23 05:16:04;;;;;;;12.38;9.77;;;9.40;99.90;;;;;;5023215;28;20052;-88
2022/10/23 05:18:43;;;;;;;18.23;9.80;;;9.40;99.90;;;;;;5022093;28;20041;-89
2022/10/23 05:21:25;;;;;;;15.57;9.73;;;9.40;99.90;;;;;;5006502;28;20049;-88
2022/10/23 05:23:57;;;;;;;12.85;9.50;;;9.40;99.90;;;;;;5018445;28;20057;-90
2022/10/23 05:26:23;;;;;;;15.63;9.60;;;9.50;99.90;;;;;;5019184;28;20049;-89
2022/10/23 05:28:48;;;;;;;14.85;9.95;;;9.40;99.90;;;;;;4987429;28;20625;-87
2022/10/23 05:31:15;;;;;;;17.38;10.43;;;9.50;99.90;;;;;;5008199;28;20520;-90
2022/10/23 05:33:40;;;;;;;15.07;11.15;;;8.80;99.90;;;;;;5010021;28;20045;-88
2022/10/23 05:36:07;;;;;;;13.63;10.10;;;9.50;99.90;;;;;;5009362;28;20116;-88
2022/10/23 05:38:34;;;;;;;14.02;9.13;;;9.50;99.90;;;;;;5018070;28;20061;-89
2022/10/23 05:41:03;;;;;;;13.68;10.38;;;9.50;99.90;;;;;;5032983;28;20062;-87
2022/10/23 05:43:31;;;;;;;13.73;10.48;;;9.60;99.90;;;;;;5024866;28;20057;-89
2022/10/23 05:45:57;;;;;;;16.10;10.25;;;9.50;99.90;;;;;;5020708;28;20049;-90
2022/10/23 05:48:25;;;;;;;12.73;9.32;;;9.70;99.90;;;;;;5019902;28;20075;-87
2022/10/23 05:50:51;;;;;;;16.38;10.55;;;8.20;99.90;;;;;;5005032;28;20052;-88
2022/10/23 05:53:17;;;;;;;14.88;9.95;;;9.50;99.90;;;;;;5018986;28;20273;-87
2022/10/23 05:55:46;;;;;;;17.52;10.40;;;9.50;99.90;;;;;;5022165;28;20045;-90
2022/10/23 05:58:11;;;;;;;12.82;10.02;;;9.40;99.90;;;;;;5003722;28;20534;-88
2022/10/23 06:00:37;;;;;;;11.82;9.05;;;9.60;99.90;;;;;;5020758;28;20049;-87
2022/10/23 06:03:11;;;;;;;14.60;9.43;;;8.90;99.90;;;;;;5016463;28;20049;-88
2022/10/23 06:05:37;;;;;;;13.77;10.10;;;9.70;99.90;;;;;;5000788;28;20064;-87
2022/10/23 06:08:10;;;;;;;14.63;9.82;;;9.50;99.90;;;;;;5001935;28;20045;-86
2022/10/23 06:10:36;;;;;;;14.80;9.85;;;9.50;99.90;;;;;;4990060;28;20080;-86
2022/10/23 06:13:02;;;;;;;15.88;10.20;;;9.50;99.90;;;;;;5000550;28;20074;-87
2022/10/23 06:15:30;;;;;;;19.27;11.13;;;9.50;99.90;;;;;;5021913;28;20122;-88
2022/10/23 06:18:03;;;;;;;13.10;9.30;;;9.60;99.90;;;;;;4987435;28;20114;-88
2022/10/23 06:20:29;;;;;;;14.88;10.48;;;9.60;99.90;;;;;;5008342;28;20084;-88
2022/10/23 06:22:55;;;;;;;13.85;10.32;;;9.60;99.90;;;;;;4987338;28;20088;-85
2022/10/23 06:25:20;;;;;;;17.20;11.45;;;9.60;99.90;;;;;;5009872;28;20045;-83
2022/10/23 06:27:52;;;;;;;13.18;10.27;;;9.70;99.90;;;;;;4989672;28;20053;-89
2022/10/23 06:30:18;;;;;;;15.20;11.38;;;9.90;99.90;;;;;;5018315;28;20061;-86
2022/10/23 06:32:44;;;;;;;16.80;10.73;;;9.60;99.90;;;;;;5016719;28;20049;-88
2022/10/23 06:35:09;;;;;;;13.90;10.75;;;9.70;99.90;;;;;;5001284;28;20509;-86
2022/10/23 06:37:35;;;;;;;14.85;11.07;;;9.70;99.90;;;;;;4992123;28;20052;-86
2022/10/23 06:40:01;;;;;;;17.85;11.95;;;9.70;99.90;;;;;;5001554;28;20049;-86
2022/10/23 06:42:28;;;;;;;14.95;10.60;;;9.70;99.90;;;;;;5001466;28;20089;-85
2022/10/23 06:44:54;;;;;;;14.30;10.50;;;9.80;99.90;;;;;;5015562;28;20053;-88
2022/10/23 06:47:20;;;;;;;16.55;11.88;;;9.80;99.90;;;;;;5004658;28;20092;-87
2022/10/23 06:49:46;;;;;;;17.98;12.13;;;9.90;99.90;;;;;;5004103;28;20115;-87
2022/10/23 06:52:12;;;;;;;16.45;10.65;;;9.80;99.90;;;;;;4991724;28;20080;-88
2022/10/23 06:54:42;;;;;;;18.73;11.88;;;10.00;99.90;;;;;;4997141;28;20068;-90
2022/10/23 06:57:11;;;;;;;14.25;10.93;;;8.80;99.90;;;;;;5014560;28;20166;-89
2022/10/23 06:59:37;;;;;;;18.65;11.75;;;10.00;99.90;;;;;;5010784;28;20057;-92
2022/10/23 07:02:05;;;;;;;12.60;9.50;;;10.10;99.90;;;;;;5011241;28;20056;-89
2022/10/23 07:04:31;;;;;;;16.20;12.05;;;10.10;99.90;;;;;;5028055;28;20091;-87
2022/10/23 07:07:09;;;;;;;17.50;11.85;;;10.10;99.90;;;;;;5021775;28;20042;-89
2022/10/23 07:09:35;;;;;;;20.17;12.32;;;10.20;99.90;;;;;;4991302;28;20060;-91
2022/10/23 07:12:01;;;;;;;18.10;12.05;;;10.40;99.90;;;;;;5024059;28;20494;-90
2022/10/23 07:14:36;;;;;;;20.33;11.57;;;10.30;99.90;;;;;;5006606;28;20049;-90
2022/10/23 07:17:02;;;;;;;13.37;10.70;;;10.50;99.90;;;;;;5021286;28;20049;-91
2022/10/23 07:19:33;;;;;;;16.77;12.20;;;10.50;99.90;;;;;;5007520;28;20366;-89
2022/10/23 07:22:01;;;;;;;14.57;12.05;;;10.50;99.90;;;;;;4992239;28;20412;-88
2022/10/23 07:24:30;;;;;;;15.93;10.50;;;11.40;99.90;;;;;;5026986;28;20091;-91
2022/10/23 07:27:06;;;;;;;19.70;11.40;;;9.60;99.90;;;;;;5009500;28;20671;-89
2022/10/23 07:29:35;;;;;;;16.63;10.65;;;10.70;99.90;;;;;;5012154;28;20046;-87
2022/10/23 07:32:04;;;;;;;15.48;11.48;;;10.80;99.90;;;;;;5014763;28;20045;-88
2022/10/23 07:34:35;;;;;;;13.05;10.25;;;10.70;99.90;;;;;;5029160;28;20101;-87
2022/10/23 07:37:04;;;;;;;20.10;11.52;;;10.80;99.90;;;;;;5025627;28;20052;-88
2022/10/23 07:39:30;;;;;;;20.13;12.13;;;10.80;99.90;;;;;;5012997;28;20129;-87
2022/10/23 07:42:00;;;;;;;17.23;11.95;;;11.00;99.90;;;;;;4994705;28;20128;-88
2022/10/23 07:44:28;;;;;;;17.13;11.75;;;11.00;99.90;;;;;;5003795;28;20131;-87
2022/10/23 07:46:54;;;;;;;17.73;12.27;;;11.50;99.90;;;;;;5002175;28;20055;-88
2022/10/23 07:49:20;;;;;;;14.75;10.32;;;11.10;99.90;;;;;;4991902;28;20053;-86
2022/10/23 07:51:48;;;;;;;16.42;11.98;;;11.10;99.90;;;;;;5024573;28;20048;-87
2022/10/23 07:54:14;;;;;;;15.45;10.05;;;10.70;99.90;;;;;;5014595;28;20476;-86
2022/10/23 07:56:47;;;;;;;18.77;12.15;;;11.20;99.90;;;;;;5026415;28;20054;-87
2022/10/23 07:59:13;;;;;;;16.95;10.50;;;11.20;99.90;;;;;;5012511;28;20076;-88
2022/10/23 08:01:46;;;;;;;15.35;11.32;;;11.50;99.90;;;;;;5002357;28;20830;-89
2022/10/23 08:04:13;;;;;;;16.58;12.82;;;12.10;99.90;;;;;;5017154;28;20076;-86
2022/10/23 08:06:39;;;;;;;18.88;11.63;;;11.50;99.90;;;;;;5001513;28;20045;-86
2022/10/23 08:09:07;;;;;;;19.02;11.55;;;11.50;99.90;;;;;;5004673;28;20045;-89
2022/10/23 08:11:41;;;;;;;17.60;11.77;;;11.50;99.90;;;;;;5007524;28;20505;-87
2022/10/23 08:14:07;;;;;;;17.48;10.82;;;10.80;99.90;;;;;;5007714;28;20045;-85
2022/10/23 08:16:35;;;;;;;16.27;11.10;;;11.60;99.90;;;;;;5009836;28;20053;-89
2022/10/23 08:19:01;;;;;;;21.15;11.73;;;11.70;99.90;;;;;;5008658;28;20173;-88
2022/10/23 08:21:30;;;;;;;21.77;12.18;;;11.70;99.90;;;;;;5007182;28;20045;-88
2022/10/23 08:24:04;;;;;;;17.05;11.15;;;11.90;99.90;;;;;;4994177;28;20056;-91
2022/10/23 08:26:35;;;;;;;18.80;11.73;;;12.00;99.90;;;;;;5011146;28;20045;-90
2022/10/23 08:29:04;;;;;;;17.90;11.70;;;12.00;99.90;;;;;;5007298;28;20053;-90
2022/10/23 08:31:35;;;;;;;18.30;10.30;;;12.30;99.90;;;;;;5013175;28;20129;-90
2022/10/23 08:37:10;;;;;;;;;;;;;;;;;;;;;
2022/10/23 08:39:42;;;;;;;19.08;10.93;;;13.40;99.90;;;;;;5022956;28;20054;-89
2022/10/23 08:42:25;;;;;;;18.77;11.68;;;11.70;99.90;;;;;;5010086;28;20092;-88
2022/10/23 08:45:04;;;;;;;17.52;11.23;;;12.50;99.90;;;;;;5010554;28;20090;-90
2022/10/23 08:47:53;;;;;;;20.02;11.40;;;12.70;99.90;;;;;;5015246;28;20046;-91
2022/10/23 08:50:46;;;;;;;17.45;11.35;;;12.70;99.90;;;;;;5014271;28;20054;-89
2022/10/23 08:53:19;;;;;;;15.77;11.65;;;12.70;99.90;;;;;;5010751;28;20091;-90
2022/10/23 08:56:03;;;;;;;16.52;11.40;;;12.80;99.90;;;;;;5008089;28;20050;-89
2022/10/23 08:58:49;;;;;;;17.80;10.95;;;12.20;99.90;;;;;;5005876;28;20048;-90
2022/10/23 09:01:49;;;;;;;16.60;10.88;;;13.00;99.90;;;;;;5009782;28;20045;-91
2022/10/23 09:04:18;;;;;;;15.77;10.95;;;13.00;99.90;;;;;;4993105;28;20080;-89
2022/10/23 09:06:58;;;;;;;17.50;10.07;;;13.00;99.90;;;;;;5020292;28;20073;-88
2022/10/23 09:09:37;;;;;;;17.40;10.82;;;13.00;99.90;;;;;;5022643;28;20111;-88
2022/10/23 09:12:15;;;;;;;17.35;10.60;;;13.30;99.90;;;;;;5021272;28;20038;-87
2022/10/23 09:15:09;;;;;;;15.43;9.73;;;13.20;99.90;;;;;;5023484;28;20129;-88
2022/10/23 09:17:47;;;;;;;;;;;;;;;;;;;;;
2022/10/23 09:20:34;;;;;;;12.30;9.75;;;13.30;99.90;;;;;;5020563;28;20133;-89
2022/10/23 09:23:11;;;;;;;16.58;9.68;;;13.30;99.90;;;;;;5004055;28;20041;-85
2022/10/23 09:25:39;;;;;;;15.52;9.63;;;13.40;99.90;;;;;;5012139;28;20041;-89
2022/10/23 09:28:16;;;;;;;15.38;9.55;;;13.40;99.90;;;;;;5023816;28;20046;-86
2022/10/23 09:30:53;;;;;;;16.30;10.68;;;13.50;99.90;;;;;;5020824;28;20491;-88
2022/10/23 09:33:27;;;;;;;15.27;10.43;;;13.70;99.90;;;;;;5001703;28;20056;-87
2022/10/23 09:35:56;;;;;;;15.38;9.88;;;13.70;99.90;;;;;;5019439;28;20093;-88
2022/10/23 09:38:47;;;;;;;15.93;10.13;;;13.70;99.90;;;;;;5005258;28;20184;-89
2022/10/23 09:41:22;;;;;;;15.68;8.98;;;13.80;99.90;;;;;;5018986;28;20054;-88
2022/10/23 09:44:15;;;;;;;11.80;8.98;;;13.90;99.90;;;;;;4990788;28;20067;-86
2022/10/23 09:46:50;;;;;;;15.00;8.70;;;13.90;99.90;;;;;;5021690;28;20046;-87
2022/10/23 09:49:27;;;;;;;17.80;9.95;;;13.20;99.90;;;;;;5023003;28;20570;-86
2022/10/23 09:52:20;;;;;;;12.95;8.93;;;14.00;99.90;;;;;;5021439;28;20057;-87
2022/10/23 09:54:49;;;;;;;13.70;9.55;;;14.00;99.90;;;;;;5029151;28;20083;-89
2022/10/23 09:57:21;;;;;;;15.57;9.55;;;14.00;99.90;;;;;;5022101;28;20080;-86
2022/10/23 09:59:57;;;;;;;14.00;9.32;;;14.00;99.90;;;;;;5010493;28;20052;-88
2022/10/23 10:02:39;;;;;;;13.68;8.68;;;14.00;99.90;;;;;;5026829;28;20115;-90
2022/10/23 10:05:33;;;;;;;13.65;9.77;;;14.10;99.90;;;;;;5024338;28;20042;-86
2022/10/23 10:08:44;;;;;;;11.13;8.65;;;14.20;99.90;;;;;;5009903;28;20487;-88
2022/10/23 10:11:34;;;;;;;15.50;8.77;;;14.20;99.90;;;;;;5020527;28;20058;-89
2022/10/23 10:14:23;;;;;;;14.63;8.40;;;15.30;99.90;;;;;;5020113;28;20045;-84
2022/10/23 10:17:17;;;;;;;13.40;8.23;;;14.20;99.90;;;;;;4998536;28;20057;-88
2022/10/23 10:20:03;;;;;;;13.27;8.10;;;14.40;99.90;;;;;;5003906;28;20049;-88
2022/10/23 10:22:43;;;;;;;16.10;9.00;;;14.40;99.90;;;;;;5007112;28;20076;-86
2022/10/23 10:25:27;;;;;;;10.55;7.45;;;14.50;99.90;;;;;;5016134;28;20049;-87
2022/10/23 10:28:05;;;;;;;13.15;7.90;;;14.50;99.90;;;;;;5001047;28;20046;-85
2022/10/23 10:31:02;;;;;;;10.52;7.15;;;14.70;99.90;;;;;;5018791;28;20137;-85
2022/10/23 10:33:37;;;;;;;10.55;6.90;;;14.80;99.90;;;;;;5018250;28;20058;-85
2022/10/23 10:36:36;;;;;;;10.70;7.20;;;14.80;99.90;;;;;;5010473;28;20041;-85
2022/10/23 10:39:12;;;;;;;10.55;6.78;;;14.90;99.90;;;;;;5012470;28;20667;-87
2022/10/23 10:41:53;;;;;;;9.13;6.85;;;15.00;99.90;;;;;;5015747;28;20073;-86
2022/10/23 10:44:36;;;;;;;11.57;6.82;;;13.90;99.90;;;;;;4991545;28;20491;-84
2022/10/23 10:47:14;;;;;;;12.02;6.50;;;15.10;99.90;;;;;;5006755;28;20045;-90
2022/10/23 10:49:56;;;;;;;11.05;7.20;;;15.10;99.90;;;;;;5001749;28;20965;-88
2022/10/23 10:52:46;;;;;;;9.65;6.72;;;15.10;99.90;;;;;;5019178;28;20076;-88
2022/10/23 10:55:20;;;;;;;9.90;6.25;;;15.20;99.90;;;;;;5022073;28;20128;-90
2022/10/23 10:58:00;;;;;;;11.02;6.47;;;15.20;99.90;;;;;;5020213;28;20267;-86
2022/10/23 11:00:31;;;;;;;10.90;6.55;;;15.30;99.90;;;;;;5003236;28;20744;-89
2022/10/23 11:03:08;;;;;;;9.63;6.45;;;15.30;99.90;;;;;;5017764;28;20143;-88
2022/10/23 11:05:49;;;;;;;11.20;6.57;;;15.30;99.90;;;;;;5018676;28;20049;-89
2022/10/23 11:08:28;;;;;;;8.15;6.32;;;15.30;99.90;;;;;;5014741;28;20037;-88
2022/10/23 11:11:07;;;;;;;9.25;6.07;;;15.50;99.90;;;;;;5000905;28;20363;-90
2022/10/23 11:13:36;;;;;;;9.85;6.30;;;15.40;99.90;;;;;;4988519;28;20053;-89
2022/10/23 11:16:11;;;;;;;9.90;5.80;;;15.40;99.90;;;;;;5005791;28;20045;-89
2022/10/23 11:18:44;;;;;;;10.85;6.57;;;14.60;99.90;;;;;;5020288;28;20049;-88
2022/10/23 11:21:12;;;;;;;8.32;6.75;;;15.40;99.90;;;;;;5002167;28;20495;-89
2022/10/23 11:24:16;;;;;;;10.05;6.57;;;15.50;99.90;;;;;;5001792;28;20487;-89
2022/10/23 11:26:54;;;;;;;10.82;6.45;;;15.50;99.90;;;;;;5004235;28;20564;-88
2022/10/23 11:29:50;;;;;;;9.15;6.50;;;15.50;99.90;;;;;;4999538;28;20072;-89
2022/10/23 11:32:51;;;;;;;;;;;;;;;;;;;;;
2022/10/23 11:35:51;;;;;;;8.25;5.70;;;15.60;99.90;;;;;;5016554;28;20048;-85
2022/10/23 11:38:32;;;;;;;9.02;6.30;;;15.50;99.90;;;;;;5021569;28;20052;-87
2022/10/23 11:41:11;;;;;;;;;;;;;;;;;;;;;
2022/10/23 11:44:13;;;;;;;7.55;6.10;;;15.60;99.90;;;;;;5039226;28;20036;-88
2022/10/23 11:47:02;;;;;;;9.40;6.20;;;15.70;99.90;;;;;;5018179;28;20064;-89
2022/10/23 11:49:45;;;;;;;8.25;6.28;;;15.70;99.90;;;;;;5007298;28;20065;-89
2022/10/23 11:52:26;;;;;;;9.68;5.65;;;15.70;99.90;;;;;;4997544;28;20091;-87
2022/10/23 11:55:18;;;;;;;10.95;5.97;;;15.80;99.90;;;;;;5007374;28;20042;-89
2022/10/23 11:58:19;;;;;;;9.90;6.10;;;15.80;99.90;;;;;;5024911;28;20079;-89
2022/10/23 12:01:18;;;;;;;7.35;5.40;;;16.00;99.90;;;;;;5023544;28;20057;-90
2022/10/23 12:03:56;;;;;;;8.07;5.00;;;15.90;99.90;;;;;;5028269;28;20534;-90
2022/10/23 12:06:29;;;;;;;10.10;5.47;;;15.80;99.90;;;;;;5009569;28;20554;-90
2022/10/23 12:09:25;;;;;;;7.03;5.20;;;15.90;99.90;;;;;;5007928;28;20045;-87
2022/10/23 12:12:09;;;;;;;6.95;4.90;;;15.50;99.90;;;;;;5004128;28;20042;-90
2022/10/23 12:14:37;;;;;;;7.30;5.00;;;16.60;99.90;;;;;;5005112;28;20574;-89
2022/10/23 12:17:24;;;;;;;7.20;5.38;;;16.40;99.90;;;;;;5000923;28;20079;-88
2022/10/23 12:20:01;;;;;;;6.85;4.93;;;15.70;99.90;;;;;;5015630;28;20081;-89
2022/10/23 12:23:07;;;;;;;8.45;5.20;;;15.70;99.90;;;;;;5021765;28;20467;-88
2022/10/23 12:26:09;;;;;;;7.93;4.75;;;15.60;99.90;;;;;;5002251;28;20049;-88
2022/10/23 12:29:12;;;;;;;8.77;4.88;;;15.30;99.90;;;;;;5003019;28;20049;-82
2022/10/23 12:32:30;;;;;;;9.45;5.07;;;15.70;99.90;;;;;;5006537;28;20057;-90
2022/10/23 12:35:12;;;;;;;7.45;5.05;;;15.60;99.90;;;;;;4998361;28;20053;-90
2022/10/23 12:37:56;;;;;;;11.25;4.93;;;15.10;99.90;;;;;;5012530;28;20048;-89
2022/10/23 12:40:28;;;;;;;6.80;4.60;;;15.70;99.90;;;;;;5025662;28;20117;-87
2022/10/23 12:42:56;;;;;;;9.75;4.60;;;14.80;99.90;;;;;;5010243;28;20090;-89
2022/10/23 12:45:32;;;;;;;7.63;4.72;;;15.60;99.90;;;;;;5014929;28;20057;-88
2022/10/23 12:48:07;;;;;;;7.75;3.88;;;15.60;99.90;;;;;;5009813;28;20049;-89
2022/10/23 12:50:56;;;;;;;;;;;;;;;;;;;;;
2022/10/23 12:53:53;;;;;;;7.70;4.32;;;15.70;99.90;;;;;;5037903;28;20042;-90
2022/10/23 12:57:17;;;;;;;7.65;4.00;;;15.60;99.90;;;;;;5041354;28;20060;-93
2022/10/23 13:03:23;;;;;;;6.63;4.10;;;15.80;99.90;;;;;;5035525;28;20181;-93
2022/10/23 13:06:04;;;;;;;6.50;4.07;;;14.90;99.90;;;;;;5019061;28;20145;-95
2022/10/23 13:12:52;;;;;;;6.05;3.72;;;14.80;99.90;;;;;;5033644;28;20050;-92
2022/10/23 13:15:54;;;;;;;;;;;;;;;;;;;;;
2022/10/23 13:19:13;;;;;;;8.30;4.25;;;15.30;99.90;;;;;;5032123;28;20090;-95
2022/10/23 13:21:56;;;;;;;5.93;3.63;;;15.80;99.90;;;;;;5019132;28;20049;-94
2022/10/23 13:24:43;;;;;;;6.45;3.38;;;15.80;99.90;;;;;;5032023;28;20112;-95
2022/10/23 13:27:39;;;;;;;7.07;3.60;;;15.80;99.90;;;;;;5028155;28;20055;-93
2022/10/23 13:30:38;;;;;;;6.45;3.75;;;15.70;99.90;;;;;;5006960;28;20045;-92
2022/10/23 13:33:45;;;;;;;7.00;3.70;;;15.80;99.90;;;;;;5026960;28;20057;-92
2022/10/23 13:36:13;;;;;;;5.95;3.70;;;15.70;99.90;;;;;;5023298;28;20119;-92
2022/10/23 13:38:47;;;;;;;7.95;4.20;;;15.70;99.90;;;;;;5023674;28;20045;-93
2022/10/23 13:41:20;;;;;;;7.40;3.70;;;15.70;99.90;;;;;;5008015;28;20110;-91
2022/10/23 13:43:47;;;;;;;6.88;4.20;;;15.60;99.90;;;;;;5002709;28;20053;-92